createdAt,value
2018-09-05T00:02:07.244Z,22.00
2018-09-05T00:04:41.707Z,22.00
2018-09-05T00:07:16.142Z,21.90
2018-09-05T00:09:50.481Z,21.90
2018-09-05T00:12:24.875Z,21.90
2018-09-05T00:14:59.278Z,21.90
2018-09-05T00:17:33.651Z,21.90
2018-09-05T00:20:08.019Z,21.90
2018-09-05T00:22:42.398Z,21.90
2018-09-05T00:25:16.765Z,21.90
2018-09-05T00:27:51.117Z,21.80
2018-09-05T00:30:25.577Z,21.90
2018-09-05T00:32:59.936Z,21.80
2018-09-05T00:35:34.470Z,21.80
2018-09-05T00:38:08.820Z,21.80
2018-09-05T00:40:43.154Z,21.80
2018-09-05T00:43:17.520Z,21.80
2018-09-05T00:45:51.869Z,21.80
2018-09-05T00:48:26.222Z,21.80
2018-09-05T00:51:00.589Z,21.80
2018-09-05T00:53:35.011Z,21.80
2018-09-05T00:56:09.397Z,21.80
2018-09-05T00:58:43.789Z,21.80
2018-09-05T01:01:18.160Z,21.80
2018-09-05T01:03:52.525Z,21.80
2018-09-05T01:06:26.868Z,21.90
2018-09-05T01:09:01.245Z,21.90
2018-09-05T01:11:35.626Z,21.90
2018-09-05T01:14:09.985Z,21.90
2018-09-05T01:16:44.338Z,21.90
2018-09-05T01:19:18.731Z,21.90
2018-09-05T01:21:53.075Z,21.80
2018-09-05T01:24:27.478Z,21.90
2018-09-05T01:27:01.863Z,21.90
2018-09-05T01:29:37.738Z,21.90
2018-09-05T01:32:12.553Z,21.90
2018-09-05T01:34:47.195Z,21.90
2018-09-05T01:37:21.835Z,21.90
2018-09-05T01:39:56.254Z,21.90
2018-09-05T01:42:30.629Z,21.90
2018-09-05T01:45:05.071Z,21.90
2018-09-05T01:47:39.414Z,21.90
2018-09-05T01:50:13.763Z,21.90
2018-09-05T01:52:48.178Z,21.90
2018-09-05T01:55:22.570Z,21.90
2018-09-05T01:57:56.941Z,21.90
2018-09-05T02:00:33.486Z,21.90
2018-09-05T02:03:07.845Z,21.80
2018-09-05T02:05:42.218Z,21.80
2018-09-05T02:08:16.529Z,21.80
2018-09-05T02:10:50.959Z,21.90
2018-09-05T02:13:25.305Z,21.90
2018-09-05T02:15:59.693Z,21.90
2018-09-05T02:18:34.117Z,21.90
2018-09-05T02:21:08.470Z,21.90
2018-09-05T02:23:42.830Z,21.90
2018-09-05T02:26:17.170Z,21.90
2018-09-05T02:28:51.838Z,21.90
2018-09-05T02:31:26.226Z,21.90
2018-09-05T02:34:00.671Z,21.90
2018-09-05T02:36:35.053Z,21.90
2018-09-05T02:39:10.530Z,21.90
2018-09-05T02:41:44.951Z,21.90
2018-09-05T02:44:19.545Z,22.00
2018-09-05T02:46:53.918Z,22.00
2018-09-05T02:49:28.314Z,22.00
2018-09-05T02:52:02.649Z,22.00
2018-09-05T02:54:37.658Z,22.00
2018-09-05T02:57:12.052Z,22.00
2018-09-05T02:59:46.446Z,22.00
2018-09-05T03:02:20.842Z,22.00
2018-09-05T03:04:55.288Z,22.00
2018-09-05T03:07:29.676Z,22.00
2018-09-05T03:10:04.090Z,22.00
2018-09-05T03:12:38.484Z,22.00
2018-09-05T03:15:12.832Z,22.00
2018-09-05T03:17:47.197Z,22.00
2018-09-05T03:20:21.653Z,22.00
2018-09-05T03:22:56.039Z,22.00
2018-09-05T03:25:30.414Z,22.00
2018-09-05T03:28:04.751Z,22.00
2018-09-05T03:30:39.984Z,21.90
2018-09-05T03:33:14.365Z,22.00
2018-09-05T03:35:48.728Z,22.00
2018-09-05T03:38:23.102Z,22.00
2018-09-05T03:40:57.619Z,22.00
2018-09-05T03:43:32.005Z,22.00
2018-09-05T03:46:06.635Z,22.00
2018-09-05T03:48:41.000Z,22.00
2018-09-05T03:51:15.373Z,22.00
2018-09-05T03:53:49.739Z,22.00
2018-09-05T03:56:24.098Z,22.00
2018-09-05T03:58:58.522Z,22.00
2018-09-05T04:01:32.852Z,22.00
2018-09-05T04:04:07.313Z,22.10
2018-09-05T04:06:41.692Z,22.00
2018-09-05T04:09:16.078Z,22.10
2018-09-05T04:11:50.407Z,22.10
2018-09-05T04:14:24.745Z,22.00
2018-09-05T04:16:59.141Z,22.10
2018-09-05T04:19:33.502Z,22.10
2018-09-05T04:22:07.975Z,22.10
2018-09-05T04:24:42.312Z,22.10
2018-09-05T04:27:16.671Z,22.10
2018-09-05T04:29:51.375Z,22.10
2018-09-05T04:32:25.753Z,22.10
2018-09-05T04:35:00.254Z,22.10
2018-09-05T04:37:34.594Z,22.10
2018-09-05T04:40:09.060Z,22.10
2018-09-05T04:42:43.513Z,22.10
2018-09-05T04:45:18.042Z,22.10
2018-09-05T04:47:52.280Z,22.10
2018-09-05T04:50:26.689Z,22.10
2018-09-05T04:53:01.045Z,22.10
2018-09-05T04:55:35.435Z,22.10
2018-09-05T04:58:09.764Z,22.10
2018-09-05T05:00:44.131Z,22.10
2018-09-05T05:03:18.494Z,22.10
2018-09-05T05:05:53.114Z,22.10
2018-09-05T05:08:27.364Z,22.10
2018-09-05T05:11:01.937Z,22.10
2018-09-05T05:13:36.406Z,22.10
2018-09-05T05:16:42.919Z,22.10
2018-09-05T05:19:17.294Z,22.10
2018-09-05T05:21:51.606Z,22.10
2018-09-05T05:24:25.992Z,22.10
2018-09-05T05:27:00.321Z,22.20
2018-09-05T05:29:38.427Z,22.20
2018-09-05T05:32:12.747Z,22.20
2018-09-05T05:34:47.175Z,22.20
2018-09-05T05:37:21.535Z,22.20
2018-09-05T05:39:55.908Z,22.30
2018-09-05T05:42:30.296Z,22.30
2018-09-05T05:45:05.367Z,22.30
2018-09-05T05:47:39.723Z,22.30
2018-09-05T05:50:14.098Z,22.30
2018-09-05T05:52:48.522Z,22.30
2018-09-05T05:55:22.890Z,22.30
2018-09-05T05:57:57.174Z,22.40
2018-09-05T06:00:31.562Z,22.40
2018-09-05T06:03:06.009Z,22.40
2018-09-05T06:05:40.358Z,22.40
2018-09-05T06:08:14.698Z,22.40
2018-09-05T06:10:49.057Z,22.50
2018-09-05T06:13:23.415Z,22.50
2018-09-05T06:15:57.801Z,22.50
2018-09-05T06:18:32.223Z,22.50
2018-09-05T06:21:06.679Z,22.60
2018-09-05T06:23:41.124Z,22.60
2018-09-05T06:26:15.462Z,22.60
2018-09-05T06:28:49.848Z,22.60
2018-09-05T06:31:24.252Z,22.70
2018-09-05T06:33:58.618Z,22.70
2018-09-05T06:36:33.057Z,22.70
2018-09-05T06:39:09.682Z,22.70
2018-09-05T06:41:43.973Z,22.80
2018-09-05T06:44:18.298Z,22.80
2018-09-05T06:46:52.741Z,22.80
2018-09-05T06:49:27.125Z,22.80
2018-09-05T06:52:01.495Z,22.80
2018-09-05T06:54:35.835Z,22.90
2018-09-05T06:57:10.178Z,22.90
2018-09-05T06:59:44.600Z,22.90
2018-09-05T07:02:18.914Z,22.90
2018-09-05T07:04:53.366Z,23.00
2018-09-05T07:07:28.186Z,23.00
2018-09-05T07:10:02.595Z,23.00
2018-09-05T07:12:36.950Z,23.10
2018-09-05T07:15:11.322Z,23.10
2018-09-05T07:17:45.754Z,23.10
2018-09-05T07:20:20.159Z,23.10
2018-09-05T07:22:54.514Z,23.20
2018-09-05T07:25:28.899Z,23.30
2018-09-05T07:28:03.318Z,23.30
2018-09-05T07:30:37.901Z,23.40
2018-09-05T07:33:12.182Z,23.40
2018-09-05T07:35:46.622Z,23.50
2018-09-05T07:38:20.901Z,23.50
2018-09-05T07:40:55.359Z,23.60
2018-09-05T07:43:29.724Z,23.60
2018-09-05T07:46:04.094Z,23.70
2018-09-05T07:48:38.557Z,23.80
2018-09-05T07:51:12.971Z,23.80
2018-09-05T07:53:47.402Z,23.90
2018-09-05T07:56:21.870Z,23.90
2018-09-05T07:58:56.293Z,24.00
2018-09-05T08:01:30.898Z,24.10
2018-09-05T08:04:05.412Z,24.20
2018-09-05T08:06:39.754Z,24.20
2018-09-05T08:09:14.138Z,24.30
2018-09-05T08:11:48.528Z,24.30
2018-09-05T08:14:22.855Z,24.30
2018-09-05T08:16:57.205Z,24.40
2018-09-05T08:19:31.636Z,24.40
2018-09-05T08:22:06.057Z,24.50
2018-09-05T08:24:40.564Z,24.50
2018-09-05T08:27:15.029Z,24.60
2018-09-05T08:29:49.498Z,24.70
2018-09-05T08:32:23.842Z,24.80
2018-09-05T08:34:58.325Z,24.90
2018-09-05T08:37:32.903Z,24.90
2018-09-05T08:40:07.345Z,25.00
2018-09-05T08:42:42.156Z,25.00
2018-09-05T08:45:16.780Z,25.10
2018-09-05T08:47:50.956Z,25.10
2018-09-05T08:50:25.258Z,25.20
2018-09-05T08:52:59.700Z,25.30
2018-09-05T08:55:34.011Z,25.30
2018-09-05T08:58:08.391Z,25.30
2018-09-05T09:00:42.700Z,25.30
2018-09-05T09:03:17.134Z,25.40
2018-09-05T09:05:51.494Z,25.40
2018-09-05T09:08:25.837Z,25.40
2018-09-05T09:11:00.165Z,25.50
2018-09-05T09:13:34.542Z,25.60
2018-09-05T09:16:08.975Z,25.60
2018-09-05T09:18:43.436Z,25.60
2018-09-05T09:21:17.818Z,25.70
2018-09-05T09:23:52.158Z,25.80
2018-09-05T09:26:26.502Z,26.00
2018-09-05T09:29:01.119Z,26.10
2018-09-05T09:31:35.468Z,26.30
2018-09-05T09:34:09.822Z,26.40
2018-09-05T09:36:44.143Z,26.50
2018-09-05T09:39:18.572Z,26.60
2018-09-05T09:41:52.966Z,26.70
2018-09-05T09:44:27.354Z,26.80
2018-09-05T09:47:01.902Z,26.90
2018-09-05T09:49:36.273Z,27.00
2018-09-05T09:52:15.956Z,27.10
2018-09-05T09:54:51.715Z,27.20
2018-09-05T09:57:26.062Z,27.30
2018-09-05T10:00:00.434Z,27.40
2018-09-05T10:02:40.214Z,27.40
2018-09-05T10:05:19.759Z,27.50
2018-09-05T10:07:59.386Z,27.50
2018-09-05T10:10:39.089Z,27.60
2018-09-05T10:13:17.569Z,27.60
2018-09-05T10:15:57.315Z,27.60
2018-09-05T10:18:33.290Z,27.70
2018-09-05T10:21:07.848Z,27.80
2018-09-05T10:23:42.119Z,27.90
2018-09-05T10:26:16.547Z,28.00
2018-09-05T10:28:50.992Z,28.10
2018-09-05T10:31:25.454Z,28.20
2018-09-05T10:33:59.789Z,28.30
2018-09-05T10:36:34.526Z,28.40
2018-09-05T10:39:10.101Z,28.60
2018-09-05T10:41:44.538Z,28.70
2018-09-05T10:44:18.997Z,28.90
2018-09-05T10:46:53.317Z,29.10
2018-09-05T10:49:27.646Z,29.10
2018-09-05T10:52:06.409Z,29.30
2018-09-05T10:54:40.795Z,29.40
2018-09-05T10:57:15.187Z,29.50
2018-09-05T10:59:50.945Z,29.60
2018-09-05T11:02:30.814Z,29.70
2018-09-05T11:05:05.526Z,29.80
2018-09-05T11:07:39.935Z,30.00
2018-09-05T11:10:18.995Z,30.20
2018-09-05T11:12:53.461Z,30.30
2018-09-05T11:15:27.920Z,30.50
2018-09-05T11:18:02.403Z,30.60
2018-09-05T11:20:36.963Z,30.70
2018-09-05T11:23:11.422Z,30.90
2018-09-05T11:25:45.857Z,31.00
2018-09-05T11:28:20.293Z,31.10
2018-09-05T11:30:54.627Z,31.30
2018-09-05T11:33:29.114Z,31.30
2018-09-05T11:36:03.443Z,31.50
2018-09-05T11:38:38.093Z,31.60
2018-09-05T11:41:12.487Z,31.60
2018-09-05T11:43:47.041Z,31.80
2018-09-05T11:46:21.584Z,31.90
2018-09-05T11:48:56.045Z,32.00
2018-09-05T11:51:30.381Z,32.00
2018-09-05T11:54:04.888Z,32.10
2018-09-05T11:56:39.478Z,32.20
2018-09-05T11:59:13.858Z,32.30
2018-09-05T12:01:48.333Z,32.40
2018-09-05T12:04:22.848Z,32.40
2018-09-05T12:06:57.352Z,32.40
2018-09-05T12:09:33.544Z,32.50
2018-09-05T12:12:08.045Z,32.50
2018-09-05T12:14:42.488Z,32.60
2018-09-05T12:17:17.166Z,32.70
2018-09-05T12:19:52.621Z,32.70
2018-09-05T12:22:28.713Z,32.70
2018-09-05T12:25:06.644Z,32.70
2018-09-05T12:27:45.965Z,32.70
2018-09-05T12:30:29.592Z,32.60
2018-09-05T12:33:06.305Z,32.60
2018-09-05T12:35:43.271Z,32.60
2018-09-05T12:38:22.109Z,32.60
2018-09-05T12:41:12.071Z,32.50
2018-09-05T12:43:53.381Z,32.50
2018-09-05T12:46:29.146Z,32.40
2018-09-05T12:49:05.011Z,32.30
2018-09-05T12:51:42.119Z,32.30
2018-09-05T12:54:17.754Z,32.20
2018-09-05T12:56:54.528Z,32.20
2018-09-05T12:59:31.129Z,32.20
2018-09-05T13:02:06.027Z,32.10
2018-09-05T13:04:44.490Z,32.10
2018-09-05T13:07:21.449Z,32.10
2018-09-05T13:09:59.676Z,32.20
2018-09-05T13:12:36.182Z,32.20
2018-09-05T13:15:12.975Z,32.20
2018-09-05T13:17:51.078Z,32.30
2018-09-05T13:20:25.955Z,32.30
2018-09-05T13:23:01.719Z,32.30
2018-09-05T13:25:36.660Z,32.30
2018-09-05T13:28:11.899Z,32.30
2018-09-05T13:30:46.834Z,32.40
2018-09-05T13:33:21.781Z,32.40
2018-09-05T13:35:57.782Z,32.50
2018-09-05T13:38:33.483Z,32.50
2018-09-05T13:41:08.008Z,32.60
2018-09-05T13:43:42.415Z,32.70
2018-09-05T13:46:16.895Z,32.70
2018-09-05T13:48:51.358Z,32.70
2018-09-05T13:51:26.543Z,32.80
2018-09-05T13:54:01.038Z,32.80
2018-09-05T13:56:35.418Z,32.90
2018-09-05T13:59:09.801Z,32.90
2018-09-05T14:01:44.136Z,32.90
2018-09-05T14:04:18.499Z,32.80
2018-09-05T14:06:52.910Z,32.80
2018-09-05T14:09:27.336Z,32.70
2018-09-05T14:12:01.669Z,32.60
2018-09-05T14:14:36.067Z,32.60
2018-09-05T14:17:20.169Z,32.60
2018-09-05T14:19:54.536Z,32.60
2018-09-05T14:22:28.932Z,32.50
2018-09-05T14:25:03.392Z,32.50
2018-09-05T14:27:37.810Z,32.40
2018-09-05T14:30:12.083Z,32.30
2018-09-05T14:32:46.448Z,32.20
2018-09-05T14:35:20.806Z,32.10
2018-09-05T14:37:55.184Z,31.90
2018-09-05T14:40:29.586Z,31.80
2018-09-05T14:43:03.956Z,31.70
2018-09-05T14:45:38.306Z,31.60
2018-09-05T14:48:12.715Z,31.40
2018-09-05T14:50:47.082Z,31.30
2018-09-05T14:53:21.438Z,31.10
2018-09-05T14:55:56.041Z,31.00
2018-09-05T14:58:30.431Z,30.90
2018-09-05T15:01:04.827Z,30.80
2018-09-05T15:03:39.194Z,30.70
2018-09-05T15:06:13.614Z,30.60
2018-09-05T15:08:48.168Z,30.50
2018-09-05T15:11:22.556Z,30.50
2018-09-05T15:13:56.966Z,30.30
2018-09-05T15:16:31.401Z,30.30
2018-09-05T15:19:05.927Z,30.20
2018-09-05T15:21:40.322Z,30.10
2018-09-05T15:24:14.674Z,30.10
2018-09-05T15:26:49.027Z,30.00
2018-09-05T15:29:23.429Z,30.00
2018-09-05T15:31:57.879Z,30.00
2018-09-05T15:34:32.265Z,30.00
2018-09-05T15:37:06.646Z,30.00
2018-09-05T15:39:41.014Z,30.00
2018-09-05T15:42:15.510Z,30.00
2018-09-05T15:44:49.925Z,30.00
2018-09-05T15:47:24.270Z,30.00
2018-09-05T15:49:58.703Z,29.90
2018-09-05T15:52:33.085Z,29.80
2018-09-05T15:55:07.648Z,29.80
2018-09-05T15:57:43.036Z,29.70
2018-09-05T16:00:17.391Z,29.60
2018-09-05T16:02:51.810Z,29.50
2018-09-05T16:05:26.735Z,29.50
2018-09-05T16:08:01.098Z,29.50
2018-09-05T16:10:35.561Z,29.40
2018-09-05T16:13:10.168Z,29.40
2018-09-05T16:15:45.011Z,29.30
2018-09-05T16:18:19.486Z,29.30
2018-09-05T16:20:53.793Z,29.20
2018-09-05T16:23:29.786Z,29.10
2018-09-05T16:26:04.190Z,29.00
2018-09-05T16:28:38.868Z,29.00
2018-09-05T16:31:13.312Z,28.90
2018-09-05T16:33:47.865Z,28.90
2018-09-05T16:36:23.794Z,28.90
2018-09-05T16:38:58.137Z,28.90
2018-09-05T16:41:32.558Z,28.80
2018-09-05T16:44:06.962Z,28.80
2018-09-05T16:46:41.389Z,28.80
2018-09-05T16:49:15.842Z,28.70
2018-09-05T16:51:50.676Z,28.70
2018-09-05T16:54:30.276Z,28.60
2018-09-05T16:57:05.928Z,28.60
2018-09-05T16:59:40.375Z,28.60
2018-09-05T17:02:15.821Z,28.50
2018-09-05T17:04:50.706Z,28.50
2018-09-05T17:07:25.021Z,28.40
2018-09-05T17:09:59.638Z,28.40
2018-09-05T17:12:33.994Z,28.30
2018-09-05T17:15:08.363Z,28.20
2018-09-05T17:17:42.872Z,28.20
2018-09-05T17:20:17.399Z,28.10
2018-09-05T17:22:51.947Z,28.00
2018-09-05T17:25:26.317Z,28.00
2018-09-05T17:28:00.827Z,27.90
2018-09-05T17:30:35.253Z,27.80
2018-09-05T17:33:10.042Z,27.70
2018-09-05T17:35:44.830Z,27.60
2018-09-05T17:38:19.451Z,27.50
2018-09-05T17:40:55.698Z,27.40
2018-09-05T17:43:30.447Z,27.30
2018-09-05T17:46:05.260Z,27.20
2018-09-05T17:48:39.598Z,27.10
2018-09-05T17:51:14.260Z,27.00
2018-09-05T17:53:48.619Z,26.90
2018-09-05T17:56:23.268Z,26.90
2018-09-05T17:58:57.658Z,26.80
2018-09-05T18:01:32.207Z,26.70
2018-09-05T18:04:06.558Z,26.60
2018-09-05T18:06:41.904Z,26.50
2018-09-05T18:09:17.143Z,26.40
2018-09-05T18:11:52.525Z,26.30
2018-09-05T18:14:27.020Z,26.30
2018-09-05T18:17:02.097Z,26.20
2018-09-05T18:19:36.547Z,26.10
2018-09-05T18:22:11.022Z,26.00
2018-09-05T18:24:45.565Z,26.00
2018-09-05T18:27:20.005Z,25.80
2018-09-05T18:29:54.509Z,25.80
2018-09-05T18:32:29.230Z,25.70
2018-09-05T18:35:03.911Z,25.60
2018-09-05T18:37:38.361Z,25.50
2018-09-05T18:40:12.997Z,25.50
2018-09-05T18:42:47.919Z,25.30
2018-09-05T18:45:22.398Z,25.30
2018-09-05T18:47:56.933Z,25.20
2018-09-05T18:50:31.538Z,25.10
2018-09-05T18:53:10.535Z,25.00
2018-09-05T18:55:45.823Z,24.90
2018-09-05T18:58:21.769Z,24.90
2018-09-05T19:00:56.622Z,24.80
2018-09-05T19:03:31.333Z,24.70
2018-09-05T19:06:06.238Z,24.70
2018-09-05T19:08:41.032Z,24.60
2018-09-05T19:11:16.099Z,24.50
2018-09-05T19:13:51.623Z,24.50
2018-09-05T19:16:26.419Z,24.40
2018-09-05T19:19:00.828Z,24.30
2018-09-05T19:21:35.292Z,24.20
2018-09-05T19:24:09.775Z,24.20
2018-09-05T19:26:44.212Z,24.10
2018-09-05T19:29:18.840Z,24.00
2018-09-05T19:31:53.516Z,23.90
2018-09-05T19:34:28.043Z,23.80
2018-09-05T19:37:02.589Z,23.80
2018-09-05T19:39:36.954Z,23.70
2018-09-05T19:42:11.330Z,23.60
2018-09-05T19:44:45.686Z,23.50
2018-09-05T19:47:20.156Z,23.40
2018-09-05T19:49:54.526Z,23.40
2018-09-05T19:52:28.984Z,23.40
2018-09-05T19:55:03.355Z,23.30
2018-09-05T19:57:37.686Z,23.20
2018-09-05T20:00:12.221Z,23.20
2018-09-05T20:02:46.570Z,23.10
2018-09-05T20:05:21.068Z,23.10
2018-09-05T20:07:55.383Z,23.00
2018-09-05T20:10:30.043Z,23.00
2018-09-05T20:13:04.549Z,22.90
2018-09-05T20:15:38.912Z,22.90
2018-09-05T20:18:13.276Z,22.80
2018-09-05T20:20:47.610Z,22.80
2018-09-05T20:23:22.033Z,22.70
2018-09-05T20:25:56.382Z,22.70
2018-09-05T20:28:30.762Z,22.60
2018-09-05T20:31:05.341Z,22.60
2018-09-05T20:33:39.766Z,22.60
2018-09-05T20:36:14.235Z,22.50
2018-09-05T20:38:48.696Z,22.50
2018-09-05T20:41:23.059Z,22.40
2018-09-05T20:43:57.422Z,22.40
2018-09-05T20:46:31.791Z,22.30
2018-09-05T20:49:06.218Z,22.30
2018-09-05T20:51:40.600Z,22.20
2018-09-05T20:54:14.935Z,22.20
2018-09-05T20:56:49.284Z,22.10
2018-09-05T20:59:23.722Z,22.10
2018-09-05T21:01:58.173Z,22.00
2018-09-05T21:04:32.622Z,21.90
2018-09-05T21:07:07.338Z,21.90
2018-09-05T21:09:41.674Z,21.80
2018-09-05T21:12:16.099Z,21.80
2018-09-05T21:14:50.398Z,21.80
2018-09-05T21:17:24.770Z,21.70
2018-09-05T21:19:59.101Z,21.70
2018-09-05T21:22:33.552Z,21.60
2018-09-05T21:25:08.044Z,21.60
2018-09-05T21:27:42.424Z,21.60
2018-09-05T21:30:16.765Z,21.50
2018-09-05T21:32:51.186Z,21.50
2018-09-05T21:35:25.533Z,21.50
2018-09-05T21:37:59.972Z,21.40
2018-09-05T21:40:34.421Z,21.40
2018-09-05T21:43:08.843Z,21.40
2018-09-05T21:45:43.189Z,21.30
2018-09-05T21:48:17.591Z,21.20
2018-09-05T21:50:51.978Z,21.20
2018-09-05T21:53:26.355Z,21.20
2018-09-05T21:56:00.708Z,21.10
2018-09-05T21:58:35.148Z,21.10
2018-09-05T22:01:09.525Z,21.10
2018-09-05T22:03:43.881Z,21.00
2018-09-05T22:06:18.219Z,21.00
2018-09-05T22:08:52.555Z,21.00
2018-09-05T22:11:27.770Z,21.00
2018-09-05T22:14:02.146Z,21.00
2018-09-05T22:16:36.515Z,21.00
2018-09-05T22:19:10.857Z,21.00
2018-09-05T22:21:45.275Z,21.00
2018-09-05T22:24:19.658Z,21.00
2018-09-05T22:26:54.030Z,21.00
2018-09-05T22:29:28.662Z,21.00
2018-09-05T22:32:03.129Z,21.00
2018-09-05T22:34:37.491Z,21.00
2018-09-05T22:37:11.786Z,21.00
2018-09-05T22:39:46.241Z,21.00
2018-09-05T22:42:20.597Z,20.90
2018-09-05T22:45:06.001Z,20.90
2018-09-05T22:47:57.238Z,20.90
2018-09-05T22:51:14.259Z,20.90
2018-09-05T22:58:10.489Z,20.90
2018-09-05T23:02:58.107Z,20.80
2018-09-05T23:05:44.420Z,20.40
2018-09-05T23:08:39.238Z,20.30
2018-09-05T23:11:56.384Z,20.30
2018-09-05T23:14:41.942Z,20.30
2018-09-05T23:17:27.644Z,20.30
2018-09-05T23:21:25.557Z,20.30
2018-09-05T23:24:08.734Z,20.20
2018-09-05T23:26:43.097Z,20.20
2018-09-05T23:29:17.489Z,20.20
2018-09-05T23:31:51.946Z,20.20
2018-09-05T23:34:26.349Z,20.20
2018-09-05T23:37:00.724Z,20.20
2018-09-05T23:39:35.108Z,20.20
2018-09-05T23:42:09.500Z,20.10
2018-09-05T23:44:43.890Z,20.10
2018-09-05T23:47:18.268Z,20.10
2018-09-05T23:49:52.688Z,20.10
2018-09-05T23:52:27.145Z,20.00
2018-09-05T23:55:01.827Z,20.00
2018-09-05T23:57:36.199Z,20.00
